Eurodam — PHOS — position and weather

sailwx.info

Track history (hours):
 
Tides and Currents Weather Stations Pressure Air Temp Water Temp Dewpoint Dewpoint Depression Visibility Wind Speed Wind Dir Waves Ship Positions

Eurodam (Netherlands)

Last reported at 2017-Jun-24 13:30 UTC. Time now 2017-Jun-24 13:39 UTC.
Position N 47°38' W 122°23'.

Length 285 m; draft 8 m.

Type: Ship. MMSI: 245206000.

Date/timePositionNaut miles runAvg speedWind from/ knotsBaromVisibWave heightAir tempDewpointWater temp
2017-Jun-24 13:30N 47°38' W 122°23'0 0.0
2017-Jun-24 13:00N 47°38' W 122°23'0 0.1
2017-Jun-24 12:30N 47°38' W 122°23'2 4.5
2017-Jun-24 12:00N 47°38' W 122°26'611.1
2017-Jun-24 11:31N 47°44' W 122°27'815.4
2017-Jun-24 11:00N 47°51' W 122°28'815.2
2017-Jun-24 10:29N 47°58' W 122°35'715.3
2017-Jun-24 10:00N 48°05' W 122°39'917.7
2017-Jun-24 09:31N 48°11' W 122°48'917.2
2017-Jun-24 09:01N 48°12' W 123°01'816.6
2017-Jun-24 08:31N 48°11' W 123°14'714.6
2017-Jun-24 08:01N 48°09' W 123°24'917.0
2017-Jun-24 07:30N 48°17' W 123°28'714.3
2017-Jun-24 07:01N 48°24' W 123°24'1 2.4
2017-Jun-24 06:29N 48°25' W 123°23'0 0.0
2017-Jun-24 05:58N 48°25' W 123°23'0 0.0
2017-Jun-24 05:30N 48°25' W 123°23'0 0.0
2017-Jun-24 05:00N 48°25' W 123°23'0 0.0
2017-Jun-24 04:30N 48°25' W 123°23'0 0.0
2017-Jun-24 04:00N 48°25' W 123°23'0 0.0
2017-Jun-24 03:29N 48°25' W 123°23'0 0.0
2017-Jun-24 02:59N 48°25' W 123°23'0 0.0
2017-Jun-24 02:31N 48°25' W 123°23'0 0.0
2017-Jun-24 02:00N 48°25' W 123°23'0 0.0
2017-Jun-24 01:28N 48°25' W 123°23'0 0.0
2017-Jun-24 01:00N 48°25' W 123°23'0 0.3
2017-Jun-24 00:30N 48°25' W 123°24'4 8.7
2017-Jun-24 00:01N 48°21' W 123°24'714.2
2017-Jun-23 23:30N 48°14' W 123°29'916.9
2017-Jun-23 23:00N 48°14' W 123°42'917.3
2017-Jun-23 22:30N 48°14' W 123°54'918.8
2017-Jun-23 22:00N 48°17' W 124°07'1019.6
2017-Jun-23 21:30N 48°21' W 124°21'918.6
2017-Jun-23 21:00N 48°25' W 124°34'918.9
2017-Jun-23 20:30N 48°29' W 124°47'918.5
2017-Jun-23 20:00N 48°29' W 125°00'918.2
2017-Jun-23 19:30N 48°31' W 125°14'1020.7
2017-Jun-23 19:00N 48°37' W 125°26'1020.7
2017-Jun-23 18:30N 48°43' W 125°38'1020.5
2017-Jun-23 18:00N 48°50' W 125°50'1121.4
2017-Jun-23 17:30N 48°57' W 126°02'1122.2
2017-Jun-23 17:00N 49°05' W 126°15'1122.4
2017-Jun-23 16:30N 49°12' W 126°28'1222.8
2017-Jun-23 16:00N 49°20' W 126°41'3316.3
2017-Jun-23 14:00N 49°42' W 127°18'3919.6 330 / 121025.110.8 14.1 10.8
2017-Jun-23 12:00N 50°06' W 128°06'2798.6 340 / 121026.110.8 14.1 11.1
2017-Jun-23 11:43N 50°29' W 128°29'523.2
2017-Jun-23 11:30N 50°34' W 128°32'1122.7
2017-Jun-23 11:00N 50°44' W 128°41'1554843.7
2017-Jun-23 11:00N 50°30' W 128°30'2654.6 010 / 121027.110.8 13.2 11.1
2017-Jun-23 10:31N 50°54' W 128°49'1122.4
2017-Jun-23 10:00N 51°04' W 128°56'1122.3
2017-Jun-23 09:30N 51°14' W 129°04'1122.8
2017-Jun-23 09:00N 51°24' W 129°12'1122.8
2017-Jun-23 08:30N 51°34' W 129°20'1122.9
2017-Jun-23 08:00N 51°45' W 129°28'1223.0
2017-Jun-23 07:29N 51°55' W 129°36'1122.8
2017-Jun-23 07:00N 52°05' W 129°44'1122.6
2017-Jun-23 06:30N 52°16' W 129°52'1122.9
2017-Jun-23 06:00N 52°26' W 129°60'335 8.0
2017-Jun-21 12:00N 56°54' W 135°48'18 8.9 140 / 151018.6 5.4 12.0 10.3
2017-Jun-21 10:00N 57°06' W 136°12'103 9.4 120 / 221017.6 5.4 12.0 10.3
2017-Jun-20 23:00N 58°48' W 136°42'22 3.0 120 / 81015.6 5.4 12.0 5.8
2017-Jun-20 15:40N 58°37' W 136°06'316.8
2017-Jun-20 15:30N 58°35' W 136°04'917.8
2017-Jun-20 15:00N 58°26' W 135°59'2193.4
2017-Jun-20 15:00N 58°24' W 136°00'4 8.1 1011.3 5.4 14.0 8.8
2017-Jun-20 14:30N 58°20' W 135°57'3012.1
2017-Jun-20 12:00N 58°06' W 135°06'15 7.6 020 / 41011.5 5.4 10.7 8.8 8.8
2017-Jun-20 10:00N 58°18' W 134°48'121 5.5 090 / 151010.5 2.2 10.7 8.810.4
2017-Jun-19 12:00N 56°18' W 134°24'1818.0 110 / 121008.8 2.2 11.8 9.0 9.4
2017-Jun-19 11:00N 56°00' W 134°24'39019.5 110 / 351006.8 5.4 11.8 9.010.4
2017-Jun-18 15:00N 50°24' W 128°54'4221.0 090 / 251015.9 1.1 11.410.112.2
2017-Jun-18 13:00N 50°00' W 128°00'4120.6 090 / 251015.9 5.4 11.410.112.2
2017-Jun-18 11:00N 49°34' W 127°11'4957.7
2017-Jun-18 11:00N 49°30' W 127°12'1019.4 090 / 251016.810.8 11.410.112.2
2017-Jun-18 10:29N 49°27' W 126°58'1021.6
2017-Jun-18 10:00N 49°20' W 126°45'1121.5
2017-Jun-18 09:30N 49°14' W 126°32'1121.5
2017-Jun-18 09:00N 49°08' W 126°18'1121.7
2017-Jun-18 08:30N 49°02' W 126°05'1121.7
2017-Jun-18 08:00N 48°56' W 125°51'1121.6
2017-Jun-18 07:31N 48°50' W 125°38'1121.7
2017-Jun-18 07:00N 48°44' W 125°23'1121.8
2017-Jun-18 06:30N 48°39' W 125°09'1121.9
2017-Jun-18 06:00N 48°33' W 124°55'1021.0
2017-Jun-18 05:31N 48°30' W 124°40'1020.3
2017-Jun-18 05:01N 48°26' W 124°26'1020.6
2017-Jun-18 04:31N 48°22' W 124°11'1020.7
2017-Jun-18 04:00N 48°18' W 123°57'1020.4
2017-Jun-18 03:31N 48°16' W 123°42'1019.3
2017-Jun-18 03:01N 48°14' W 123°28'713.6
2017-Jun-18 02:29N 48°09' W 123°20'918.0
2017-Jun-18 02:01N 48°12' W 123°08'1020.2
2017-Jun-18 01:30N 48°12' W 122°53'1019.7
2017-Jun-18 01:00N 48°07' W 122°40'1021.2
2017-Jun-18 00:30N 47°57' W 122°34'1020.9
2017-Jun-18 00:01N 47°48' W 122°27'1020.2
2017-Jun-17 23:31N 47°38' W 122°26'2 3.5
2017-Jun-17 23:00N 47°38' W 122°23'0 0.0
2017-Jun-17 22:30N 47°38' W 122°23'0 0.0
2017-Jun-17 22:00N 47°38' W 122°23'0 0.0
2017-Jun-17 21:30N 47°38' W 122°23'0 0.0
2017-Jun-17 21:00N 47°38' W 122°23'0 0.0
2017-Jun-17 20:30N 47°38' W 122°23'0 0.0
2017-Jun-17 19:59N 47°38' W 122°23'0 0.0
2017-Jun-17 19:29N 47°38' W 122°23'0 0.0
2017-Jun-17 18:59N 47°38' W 122°23'0 0.0
2017-Jun-17 18:29N 47°38' W 122°23'0 0.0
2017-Jun-17 17:59N 47°38' W 122°23'0 0.0
2017-Jun-17 17:28N 47°38' W 122°23'0 0.0
2017-Jun-17 16:58N 47°38' W 122°23'0 0.0
2017-Jun-17 16:28N 47°38' W 122°23'0 0.0
2017-Jun-17 15:59N 47°38' W 122°23'0 0.0
2017-Jun-17 15:28N 47°38' W 122°23'0 0.0
2017-Jun-17 14:59N 47°38' W 122°23'0 0.0
2017-Jun-17 14:28N 47°38' W 122°23'0 0.0
2017-Jun-17 13:30N 47°38' W 122°23'0 0.0
2017-Jun-17 13:00N 47°38' W 122°23'0 0.0
2017-Jun-17 12:30N 47°38' W 122°23'1 2.7
2017-Jun-17 12:00N 47°37' W 122°25'713.6
2017-Jun-17 11:30N 47°44' W 122°27'917.2
2017-Jun-17 11:00N 47°53' W 122°29'815.4
2017-Jun-17 10:30N 47°59' W 122°36'815.5
2017-Jun-17 10:00N 48°06' W 122°40'2112.5
2017-Jun-17 10:00N 48°06' W 122°42'713.2 280 / 181021.510.8 11.3 6.210.0
2017-Jun-17 09:29N 48°11' W 122°49'816.5
2017-Jun-17 09:00N 48°12' W 123°01'816.8
2017-Jun-17 08:30N 48°11' W 123°13'713.9
2017-Jun-17 08:00N 48°09' W 123°23'816.5
2017-Jun-17 07:30N 48°17' W 123°29'815.4
2017-Jun-17 07:00N 48°24' W 123°25'1 2.0
2017-Jun-17 06:23N 48°25' W 123°23'0 0.0
2017-Jun-17 05:57N 48°25' W 123°23'0 0.0
2017-Jun-17 05:21N 48°25' W 123°23'0 0.0
2017-Jun-17 04:28N 48°25' W 123°23'0 0.0
2017-Jun-17 03:09N 48°25' W 123°23'0 0.0
2017-Jun-17 02:53N 48°25' W 123°23'0 0.0
2017-Jun-17 02:21N 48°25' W 123°23'0 0.0
2017-Jun-17 02:00N 48°25' W 123°23'0 0.0
2017-Jun-17 01:23N 48°25' W 123°23'0 0.0
2017-Jun-17 00:49N 48°25' W 123°23'0 0.8
2017-Jun-17 00:31N 48°25' W 123°24'5 9.1
2017-Jun-17 00:01N 48°20' W 123°24'917.8
2017-Jun-16 23:31N 48°14' W 123°33'1121.5
2017-Jun-16 22:59N 48°14' W 123°50'1021.5
2017-Jun-16 22:30N 48°16' W 124°05'1122.3
2017-Jun-16 22:00N 48°21' W 124°20'6504.4
2017-Jun-16 22:00N 48°18' W 124°12'1633.8 260 / 161019.710.8 14.9 9.710.2
2017-Jun-16 21:31N 48°26' W 124°34'1018.7
2017-Jun-16 21:00N 48°28' W 124°48'917.7
2017-Jun-16 20:29N 48°29' W 125°02'817.6
2017-Jun-16 20:00N 48°29' W 125°14'12921.4
2017-Jun-16 14:00N 49°54' W 127°42'2411.8 280 / 111015.110.8 11.3 7.211.3
2017-Jun-16 12:00N 50°12' W 128°06'3648.3 290 / 71015.110.8 11.3 7.211.3
2017-Jun-16 11:15N 50°41' W 128°38'1454.7
2017-Jun-16 11:00N 50°54' W 128°48'525.9 270 / 151013.010.8 11.3 7.210.3
2017-Jun-16 10:49N 50°50' W 128°46'721.9
2017-Jun-16 10:30N 50°56' W 128°50'1121.9
2017-Jun-16 10:00N 51°05' W 128°58'1121.9
2017-Jun-16 09:30N 51°15' W 129°05'1121.6
2017-Jun-16 09:00N 51°25' W 129°13'198.4
2017-Jun-16 09:00N 51°24' W 129°12'1224.9 270 / 291010.810.8 11.1 7.010.9
2017-Jun-16 08:30N 51°35' W 129°20'1122.2
2017-Jun-16 08:00N 51°45' W 129°28'25912.3
2017-Jun-15 11:00N 55°42' W 132°24'   300 / 71006.710.8 7.8 4.6 9.8
Track history (hours):
 
Tides and Currents Weather Stations Pressure Air Temp Water Temp Dewpoint Dewpoint Depression Visibility Wind Speed Wind Dir Waves Ship Positions

Eurodam (Netherlands)

Last reported at 2017-Jun-24 13:30 UTC. Time now 2017-Jun-24 13:39 UTC.
Position N 47°38' W 122°23'.

Length 285 m; draft 8 m.

Type: Ship. MMSI: 245206000.

Date/timePositionNaut miles runAvg speedWind from/ knotsBaromVisibWave heightAir tempDewpointWater temp
2017-Jun-24 13:30N 47°38' W 122°23'0 0.0
2017-Jun-24 13:00N 47°38' W 122°23'0 0.1
2017-Jun-24 12:30N 47°38' W 122°23'2 4.5
2017-Jun-24 12:00N 47°38' W 122°26'611.1
2017-Jun-24 11:31N 47°44' W 122°27'815.4
2017-Jun-24 11:00N 47°51' W 122°28'815.2
2017-Jun-24 10:29N 47°58' W 122°35'715.3
2017-Jun-24 10:00N 48°05' W 122°39'917.7
2017-Jun-24 09:31N 48°11' W 122°48'917.2
2017-Jun-24 09:01N 48°12' W 123°01'816.6
2017-Jun-24 08:31N 48°11' W 123°14'714.6
2017-Jun-24 08:01N 48°09' W 123°24'917.0
2017-Jun-24 07:30N 48°17' W 123°28'714.3
2017-Jun-24 07:01N 48°24' W 123°24'1 2.4
2017-Jun-24 06:29N 48°25' W 123°23'0 0.0
2017-Jun-24 05:58N 48°25' W 123°23'0 0.0
2017-Jun-24 05:30N 48°25' W 123°23'0 0.0
2017-Jun-24 05:00N 48°25' W 123°23'0 0.0
2017-Jun-24 04:30N 48°25' W 123°23'0 0.0
2017-Jun-24 04:00N 48°25' W 123°23'0 0.0
2017-Jun-24 03:29N 48°25' W 123°23'0 0.0
2017-Jun-24 02:59N 48°25' W 123°23'0 0.0
2017-Jun-24 02:31N 48°25' W 123°23'0 0.0
2017-Jun-24 02:00N 48°25' W 123°23'0 0.0
2017-Jun-24 01:28N 48°25' W 123°23'0 0.0
2017-Jun-24 01:00N 48°25' W 123°23'0 0.3
2017-Jun-24 00:30N 48°25' W 123°24'4 8.7
2017-Jun-24 00:01N 48°21' W 123°24'714.2
2017-Jun-23 23:30N 48°14' W 123°29'916.9
2017-Jun-23 23:00N 48°14' W 123°42'917.3
2017-Jun-23 22:30N 48°14' W 123°54'918.8
2017-Jun-23 22:00N 48°17' W 124°07'1019.6
2017-Jun-23 21:30N 48°21' W 124°21'918.6
2017-Jun-23 21:00N 48°25' W 124°34'918.9
2017-Jun-23 20:30N 48°29' W 124°47'918.5
2017-Jun-23 20:00N 48°29' W 125°00'918.2
2017-Jun-23 19:30N 48°31' W 125°14'1020.7
2017-Jun-23 19:00N 48°37' W 125°26'1020.7
2017-Jun-23 18:30N 48°43' W 125°38'1020.5
2017-Jun-23 18:00N 48°50' W 125°50'1121.4
2017-Jun-23 17:30N 48°57' W 126°02'1122.2
2017-Jun-23 17:00N 49°05' W 126°15'1122.4
2017-Jun-23 16:30N 49°12' W 126°28'1222.8
2017-Jun-23 16:00N 49°20' W 126°41'3316.3
2017-Jun-23 14:00N 49°42' W 127°18'3919.6 330 / 121025.110.8 14.1 10.8
2017-Jun-23 12:00N 50°06' W 128°06'2798.6 340 / 121026.110.8 14.1 11.1
2017-Jun-23 11:43N 50°29' W 128°29'523.2
2017-Jun-23 11:30N 50°34' W 128°32'1122.7
2017-Jun-23 11:00N 50°44' W 128°41'1554843.7
2017-Jun-23 11:00N 50°30' W 128°30'2654.6 010 / 121027.110.8 13.2 11.1
2017-Jun-23 10:31N 50°54' W 128°49'1122.4
2017-Jun-23 10:00N 51°04' W 128°56'1122.3
2017-Jun-23 09:30N 51°14' W 129°04'1122.8
2017-Jun-23 09:00N 51°24' W 129°12'1122.8
2017-Jun-23 08:30N 51°34' W 129°20'1122.9
2017-Jun-23 08:00N 51°45' W 129°28'1223.0
2017-Jun-23 07:29N 51°55' W 129°36'1122.8
2017-Jun-23 07:00N 52°05' W 129°44'1122.6
2017-Jun-23 06:30N 52°16' W 129°52'1122.9
2017-Jun-23 06:00N 52°26' W 129°60'335 8.0
2017-Jun-21 12:00N 56°54' W 135°48'18 8.9 140 / 151018.6 5.4 12.0 10.3
2017-Jun-21 10:00N 57°06' W 136°12'103 9.4 120 / 221017.6 5.4 12.0 10.3
2017-Jun-20 23:00N 58°48' W 136°42'22 3.0 120 / 81015.6 5.4 12.0 5.8
2017-Jun-20 15:40N 58°37' W 136°06'316.8
2017-Jun-20 15:30N 58°35' W 136°04'917.8
2017-Jun-20 15:00N 58°26' W 135°59'2193.4
2017-Jun-20 15:00N 58°24' W 136°00'4 8.1 1011.3 5.4 14.0 8.8
2017-Jun-20 14:30N 58°20' W 135°57'3012.1
2017-Jun-20 12:00N 58°06' W 135°06'15 7.6 020 / 41011.5 5.4 10.7 8.8 8.8
2017-Jun-20 10:00N 58°18' W 134°48'121 5.5 090 / 151010.5 2.2 10.7 8.810.4
2017-Jun-19 12:00N 56°18' W 134°24'1818.0 110 / 121008.8 2.2 11.8 9.0 9.4
2017-Jun-19 11:00N 56°00' W 134°24'39019.5 110 / 351006.8 5.4 11.8 9.010.4
2017-Jun-18 15:00N 50°24' W 128°54'4221.0 090 / 251015.9 1.1 11.410.112.2
2017-Jun-18 13:00N 50°00' W 128°00'4120.6 090 / 251015.9 5.4 11.410.112.2
2017-Jun-18 11:00N 49°34' W 127°11'4957.7
2017-Jun-18 11:00N 49°30' W 127°12'1019.4 090 / 251016.810.8 11.410.112.2
2017-Jun-18 10:29N 49°27' W 126°58'1021.6
2017-Jun-18 10:00N 49°20' W 126°45'1121.5
2017-Jun-18 09:30N 49°14' W 126°32'1121.5
2017-Jun-18 09:00N 49°08' W 126°18'1121.7
2017-Jun-18 08:30N 49°02' W 126°05'1121.7
2017-Jun-18 08:00N 48°56' W 125°51'1121.6
2017-Jun-18 07:31N 48°50' W 125°38'1121.7
2017-Jun-18 07:00N 48°44' W 125°23'1121.8
2017-Jun-18 06:30N 48°39' W 125°09'1121.9
2017-Jun-18 06:00N 48°33' W 124°55'1021.0
2017-Jun-18 05:31N 48°30' W 124°40'1020.3
2017-Jun-18 05:01N 48°26' W 124°26'1020.6
2017-Jun-18 04:31N 48°22' W 124°11'1020.7
2017-Jun-18 04:00N 48°18' W 123°57'1020.4
2017-Jun-18 03:31N 48°16' W 123°42'1019.3
2017-Jun-18 03:01N 48°14' W 123°28'713.6
2017-Jun-18 02:29N 48°09' W 123°20'918.0
2017-Jun-18 02:01N 48°12' W 123°08'1020.2
2017-Jun-18 01:30N 48°12' W 122°53'1019.7
2017-Jun-18 01:00N 48°07' W 122°40'1021.2
2017-Jun-18 00:30N 47°57' W 122°34'1020.9
2017-Jun-18 00:01N 47°48' W 122°27'1020.2
2017-Jun-17 23:31N 47°38' W 122°26'2 3.5
2017-Jun-17 23:00N 47°38' W 122°23'0 0.0
2017-Jun-17 22:30N 47°38' W 122°23'0 0.0
2017-Jun-17 22:00N 47°38' W 122°23'0 0.0
2017-Jun-17 21:30N 47°38' W 122°23'0 0.0
2017-Jun-17 21:00N 47°38' W 122°23'0 0.0
2017-Jun-17 20:30N 47°38' W 122°23'0 0.0
2017-Jun-17 19:59N 47°38' W 122°23'0 0.0
2017-Jun-17 19:29N 47°38' W 122°23'0 0.0
2017-Jun-17 18:59N 47°38' W 122°23'0 0.0
2017-Jun-17 18:29N 47°38' W 122°23'0 0.0
2017-Jun-17 17:59N 47°38' W 122°23'0 0.0
2017-Jun-17 17:28N 47°38' W 122°23'0 0.0
2017-Jun-17 16:58N 47°38' W 122°23'0 0.0
2017-Jun-17 16:28N 47°38' W 122°23'0 0.0
2017-Jun-17 15:59N 47°38' W 122°23'0 0.0
2017-Jun-17 15:28N 47°38' W 122°23'0 0.0
2017-Jun-17 14:59N 47°38' W 122°23'0 0.0
2017-Jun-17 14:28N 47°38' W 122°23'0 0.0
2017-Jun-17 13:30N 47°38' W 122°23'0 0.0
2017-Jun-17 13:00N 47°38' W 122°23'0 0.0
2017-Jun-17 12:30N 47°38' W 122°23'1 2.7
2017-Jun-17 12:00N 47°37' W 122°25'713.6
2017-Jun-17 11:30N 47°44' W 122°27'917.2
2017-Jun-17 11:00N 47°53' W 122°29'815.4
2017-Jun-17 10:30N 47°59' W 122°36'815.5
2017-Jun-17 10:00N 48°06' W 122°40'2112.5
2017-Jun-17 10:00N 48°06' W 122°42'713.2 280 / 181021.510.8 11.3 6.210.0
2017-Jun-17 09:29N 48°11' W 122°49'816.5
2017-Jun-17 09:00N 48°12' W 123°01'816.8
2017-Jun-17 08:30N 48°11' W 123°13'713.9
2017-Jun-17 08:00N 48°09' W 123°23'816.5
2017-Jun-17 07:30N 48°17' W 123°29'815.4
2017-Jun-17 07:00N 48°24' W 123°25'1 2.0
2017-Jun-17 06:23N 48°25' W 123°23'0 0.0
2017-Jun-17 05:57N 48°25' W 123°23'0 0.0
2017-Jun-17 05:21N 48°25' W 123°23'0 0.0
2017-Jun-17 04:28N 48°25' W 123°23'0 0.0
2017-Jun-17 03:09N 48°25' W 123°23'0 0.0
2017-Jun-17 02:53N 48°25' W 123°23'0 0.0
2017-Jun-17 02:21N 48°25' W 123°23'0 0.0
2017-Jun-17 02:00N 48°25' W 123°23'0 0.0
2017-Jun-17 01:23N 48°25' W 123°23'0 0.0
2017-Jun-17 00:49N 48°25' W 123°23'0 0.8
2017-Jun-17 00:31N 48°25' W 123°24'5 9.1
2017-Jun-17 00:01N 48°20' W 123°24'917.8
2017-Jun-16 23:31N 48°14' W 123°33'1121.5
2017-Jun-16 22:59N 48°14' W 123°50'1021.5
2017-Jun-16 22:30N 48°16' W 124°05'1122.3
2017-Jun-16 22:00N 48°21' W 124°20'6504.4
2017-Jun-16 22:00N 48°18' W 124°12'1633.8 260 / 161019.710.8 14.9 9.710.2
2017-Jun-16 21:31N 48°26' W 124°34'1018.7
2017-Jun-16 21:00N 48°28' W 124°48'917.7
2017-Jun-16 20:29N 48°29' W 125°02'817.6
2017-Jun-16 20:00N 48°29' W 125°14'12921.4
2017-Jun-16 14:00N 49°54' W 127°42'2411.8 280 / 111015.110.8 11.3 7.211.3
2017-Jun-16 12:00N 50°12' W 128°06'3648.3 290 / 71015.110.8 11.3 7.211.3
2017-Jun-16 11:15N 50°41' W 128°38'1454.7
2017-Jun-16 11:00N 50°54' W 128°48'525.9 270 / 151013.010.8 11.3 7.210.3
2017-Jun-16 10:49N 50°50' W 128°46'721.9
2017-Jun-16 10:30N 50°56' W 128°50'1121.9
2017-Jun-16 10:00N 51°05' W 128°58'1121.9
2017-Jun-16 09:30N 51°15' W 129°05'1121.6
2017-Jun-16 09:00N 51°25' W 129°13'198.4
2017-Jun-16 09:00N 51°24' W 129°12'1224.9 270 / 291010.810.8 11.1 7.010.9
2017-Jun-16 08:30N 51°35' W 129°20'1122.2
2017-Jun-16 08:00N 51°45' W 129°28'25912.3
2017-Jun-15 11:00N 55°42' W 132°24'   300 / 71006.710.8 7.8 4.6 9.8

Dump ship's entire track history